sensor_id;sensor_type;location;lat;lon;timestamp;P1;durP1;ratioP1;P2;durP2;ratioP2
27744;SDS011;61387;48.112;8.616;2023-03-01T00:01:03;31.57;;;17.27;;
27744;SDS011;61387;48.112;8.616;2023-03-01T00:03:30;36.33;;;17.70;;
27744;SDS011;61387;48.112;8.616;2023-03-01T00:05:57;31.93;;;17.37;;
27744;SDS011;61387;48.112;8.616;2023-03-01T00:08:22;27.70;;;15.97;;
27744;SDS011;61387;48.112;8.616;2023-03-01T00:10:48;29.83;;;16.83;;
27744;SDS011;61387;48.112;8.616;2023-03-01T00:13:14;31.75;;;16.17;;
27744;SDS011;61387;48.112;8.616;2023-03-01T00:15:40;28.03;;;15.03;;
27744;SDS011;61387;48.112;8.616;2023-03-01T00:18:06;32.23;;;17.03;;
27744;SDS011;61387;48.112;8.616;2023-03-01T00:20:33;30.77;;;16.10;;
27744;SDS011;61387;48.112;8.616;2023-03-01T00:22:58;31.67;;;16.13;;
27744;SDS011;61387;48.112;8.616;2023-03-01T00:25:24;29.50;;;15.57;;
27744;SDS011;61387;48.112;8.616;2023-03-01T00:27:49;32.43;;;15.63;;
27744;SDS011;61387;48.112;8.616;2023-03-01T00:30:15;29.20;;;15.90;;
27744;SDS011;61387;48.112;8.616;2023-03-01T00:32:41;31.57;;;15.70;;
27744;SDS011;61387;48.112;8.616;2023-03-01T00:35:07;32.17;;;15.97;;
27744;SDS011;61387;48.112;8.616;2023-03-01T00:37:32;30.50;;;16.63;;
27744;SDS011;61387;48.112;8.616;2023-03-01T00:39:58;35.27;;;16.63;;
27744;SDS011;61387;48.112;8.616;2023-03-01T00:42:23;35.17;;;16.77;;
27744;SDS011;61387;48.112;8.616;2023-03-01T00:44:49;31.60;;;17.13;;
27744;SDS011;61387;48.112;8.616;2023-03-01T00:47:15;34.47;;;16.73;;
27744;SDS011;61387;48.112;8.616;2023-03-01T00:49:41;35.43;;;16.67;;
27744;SDS011;61387;48.112;8.616;2023-03-01T00:52:06;42.10;;;17.20;;
27744;SDS011;61387;48.112;8.616;2023-03-01T00:54:32;50.87;;;18.10;;
27744;SDS011;61387;48.112;8.616;2023-03-01T00:56:58;46.93;;;19.83;;
27744;SDS011;61387;48.112;8.616;2023-03-01T00:59:23;44.13;;;18.07;;
27744;SDS011;61387;48.112;8.616;2023-03-01T01:01:49;51.27;;;19.50;;
27744;SDS011;61387;48.112;8.616;2023-03-01T01:04:15;47.13;;;18.30;;
27744;SDS011;61387;48.112;8.616;2023-03-01T01:06:41;47.10;;;19.77;;
27744;SDS011;61387;48.112;8.616;2023-03-01T01:09:09;49.47;;;19.13;;
27744;SDS011;61387;48.112;8.616;2023-03-01T01:11:43;41.27;;;17.50;;
27744;SDS011;61387;48.112;8.616;2023-03-01T01:14:10;48.83;;;18.07;;
27744;SDS011;61387;48.112;8.616;2023-03-01T01:16:36;39.40;;;17.27;;
27744;SDS011;61387;48.112;8.616;2023-03-01T01:19:02;39.60;;;16.63;;
27744;SDS011;61387;48.112;8.616;2023-03-01T01:21:28;34.87;;;18.13;;
27744;SDS011;61387;48.112;8.616;2023-03-01T01:23:54;36.73;;;16.33;;
27744;SDS011;61387;48.112;8.616;2023-03-01T01:26:23;35.13;;;16.23;;
27744;SDS011;61387;48.112;8.616;2023-03-01T01:28:50;33.33;;;16.53;;
27744;SDS011;61387;48.112;8.616;2023-03-01T01:31:17;38.73;;;17.10;;
27744;SDS011;61387;48.112;8.616;2023-03-01T01:33:44;30.27;;;15.50;;
27744;SDS011;61387;48.112;8.616;2023-03-01T01:36:10;35.97;;;17.13;;
27744;SDS011;61387;48.112;8.616;2023-03-01T01:38:37;36.73;;;16.20;;
27744;SDS011;61387;48.112;8.616;2023-03-01T01:41:03;34.97;;;16.10;;
27744;SDS011;61387;48.112;8.616;2023-03-01T01:43:30;42.77;;;17.70;;
27744;SDS011;61387;48.112;8.616;2023-03-01T01:46:06;33.53;;;15.27;;
27744;SDS011;61387;48.112;8.616;2023-03-01T01:48:39;29.10;;;14.97;;
27744;SDS011;61387;48.112;8.616;2023-03-01T01:51:13;35.93;;;14.50;;
27744;SDS011;61387;48.112;8.616;2023-03-01T01:53:46;30.20;;;15.17;;
27744;SDS011;61387;48.112;8.616;2023-03-01T01:56:18;28.00;;;14.83;;
27744;SDS011;61387;48.112;8.616;2023-03-01T01:58:45;27.27;;;15.50;;
27744;SDS011;61387;48.112;8.616;2023-03-01T02:01:12;30.03;;;15.10;;
27744;SDS011;61387;48.112;8.616;2023-03-01T02:03:38;27.93;;;14.60;;
27744;SDS011;61387;48.112;8.616;2023-03-01T02:08:53;25.73;;;13.90;;
27744;SDS011;61387;48.112;8.616;2023-03-01T02:11:25;27.80;;;15.53;;
27744;SDS011;61387;48.112;8.616;2023-03-01T02:13:52;28.77;;;15.10;;
27744;SDS011;61387;48.112;8.616;2023-03-01T02:16:19;28.00;;;15.37;;
27744;SDS011;61387;48.112;8.616;2023-03-01T02:18:45;28.03;;;15.67;;
27744;SDS011;61387;48.112;8.616;2023-03-01T02:23:44;30.73;;;15.80;;
27744;SDS011;61387;48.112;8.616;2023-03-01T02:29:00;28.87;;;16.23;;
27744;SDS011;61387;48.112;8.616;2023-03-01T02:31:25;28.03;;;16.07;;
27744;SDS011;61387;48.112;8.616;2023-03-01T02:34:07;27.53;;;15.00;;
27744;SDS011;61387;48.112;8.616;2023-03-01T02:36:37;25.63;;;14.87;;
27744;SDS011;61387;48.112;8.616;2023-03-01T02:39:05;27.47;;;14.73;;
27744;SDS011;61387;48.112;8.616;2023-03-01T02:41:34;27.20;;;15.40;;
27744;SDS011;61387;48.112;8.616;2023-03-01T02:44:02;25.67;;;15.33;;
27744;SDS011;61387;48.112;8.616;2023-03-01T02:46:28;25.93;;;14.20;;
27744;SDS011;61387;48.112;8.616;2023-03-01T02:48:55;30.60;;;15.13;;
27744;SDS011;61387;48.112;8.616;2023-03-01T02:51:39;25.23;;;14.07;;
27744;SDS011;61387;48.112;8.616;2023-03-01T02:54:24;30.00;;;14.70;;
27744;SDS011;61387;48.112;8.616;2023-03-01T02:56:58;28.93;;;14.37;;
27744;SDS011;61387;48.112;8.616;2023-03-01T02:59:25;28.33;;;15.10;;
27744;SDS011;61387;48.112;8.616;2023-03-01T03:01:53;28.40;;;16.13;;
27744;SDS011;61387;48.112;8.616;2023-03-01T03:04:19;32.17;;;15.77;;
27744;SDS011;61387;48.112;8.616;2023-03-01T03:06:46;27.83;;;14.90;;
27744;SDS011;61387;48.112;8.616;2023-03-01T03:09:14;27.93;;;15.23;;
27744;SDS011;61387;48.112;8.616;2023-03-01T03:11:41;28.00;;;14.77;;
27744;SDS011;61387;48.112;8.616;2023-03-01T03:14:08;27.73;;;14.93;;
27744;SDS011;61387;48.112;8.616;2023-03-01T03:16:47;28.33;;;14.93;;
27744;SDS011;61387;48.112;8.616;2023-03-01T03:19:15;24.50;;;14.30;;
27744;SDS011;61387;48.112;8.616;2023-03-01T03:21:42;25.90;;;15.03;;
27744;SDS011;61387;48.112;8.616;2023-03-01T03:24:07;27.30;;;14.53;;
27744;SDS011;61387;48.112;8.616;2023-03-01T03:26:33;26.40;;;14.87;;
27744;SDS011;61387;48.112;8.616;2023-03-01T03:28:58;26.73;;;14.57;;
27744;SDS011;61387;48.112;8.616;2023-03-01T03:31:24;29.37;;;15.53;;
27744;SDS011;61387;48.112;8.616;2023-03-01T03:33:50;25.70;;;14.83;;
27744;SDS011;61387;48.112;8.616;2023-03-01T03:36:20;27.27;;;15.10;;
27744;SDS011;61387;48.112;8.616;2023-03-01T03:38:48;26.37;;;15.53;;
27744;SDS011;61387;48.112;8.616;2023-03-01T03:41:14;28.00;;;15.00;;
27744;SDS011;61387;48.112;8.616;2023-03-01T03:43:40;32.90;;;17.13;;
27744;SDS011;61387;48.112;8.616;2023-03-01T03:46:09;27.43;;;15.90;;
27744;SDS011;61387;48.112;8.616;2023-03-01T03:48:36;28.27;;;15.50;;
27744;SDS011;61387;48.112;8.616;2023-03-01T03:51:03;26.13;;;15.03;;
27744;SDS011;61387;48.112;8.616;2023-03-01T03:53:32;29.23;;;15.53;;
27744;SDS011;61387;48.112;8.616;2023-03-01T03:55:58;28.57;;;15.73;;
27744;SDS011;61387;48.112;8.616;2023-03-01T03:58:25;29.87;;;16.40;;
27744;SDS011;61387;48.112;8.616;2023-03-01T04:00:52;27.70;;;15.90;;
27744;SDS011;61387;48.112;8.616;2023-03-01T04:03:20;27.50;;;15.30;;
27744;SDS011;61387;48.112;8.616;2023-03-01T04:05:47;31.27;;;14.60;;
27744;SDS011;61387;48.112;8.616;2023-03-01T04:08:15;28.17;;;15.37;;
27744;SDS011;61387;48.112;8.616;2023-03-01T04:10:44;27.03;;;14.77;;
27744;SDS011;61387;48.112;8.616;2023-03-01T04:13:13;27.97;;;15.60;;
27744;SDS011;61387;48.112;8.616;2023-03-01T04:15:41;28.13;;;15.47;;
27744;SDS011;61387;48.112;8.616;2023-03-01T04:18:11;28.87;;;14.73;;
27744;SDS011;61387;48.112;8.616;2023-03-01T04:20:38;28.13;;;14.07;;
27744;SDS011;61387;48.112;8.616;2023-03-01T04:23:08;26.73;;;14.77;;
27744;SDS011;61387;48.112;8.616;2023-03-01T04:25:38;27.87;;;15.80;;
27744;SDS011;61387;48.112;8.616;2023-03-01T04:28:05;28.20;;;14.93;;
27744;SDS011;61387;48.112;8.616;2023-03-01T04:30:32;26.03;;;14.67;;
27744;SDS011;61387;48.112;8.616;2023-03-01T04:33:00;25.17;;;14.83;;
27744;SDS011;61387;48.112;8.616;2023-03-01T04:35:26;25.20;;;14.13;;
27744;SDS011;61387;48.112;8.616;2023-03-01T04:37:52;29.87;;;15.73;;
27744;SDS011;61387;48.112;8.616;2023-03-01T04:40:18;26.50;;;15.10;;
27744;SDS011;61387;48.112;8.616;2023-03-01T04:42:46;31.43;;;15.93;;
27744;SDS011;61387;48.112;8.616;2023-03-01T04:45:12;27.57;;;14.47;;
27744;SDS011;61387;48.112;8.616;2023-03-01T04:47:41;32.67;;;15.70;;
27744;SDS011;61387;48.112;8.616;2023-03-01T04:50:09;29.70;;;16.87;;
27744;SDS011;61387;48.112;8.616;2023-03-01T04:52:36;29.63;;;15.83;;
27744;SDS011;61387;48.112;8.616;2023-03-01T04:55:02;27.63;;;15.50;;
27744;SDS011;61387;48.112;8.616;2023-03-01T04:57:28;31.93;;;14.90;;
27744;SDS011;61387;48.112;8.616;2023-03-01T04:59:54;27.70;;;15.87;;
27744;SDS011;61387;48.112;8.616;2023-03-01T05:02:19;29.85;;;15.88;;
27744;SDS011;61387;48.112;8.616;2023-03-01T05:04:45;29.67;;;16.00;;
27744;SDS011;61387;48.112;8.616;2023-03-01T05:07:11;29.57;;;15.33;;
27744;SDS011;61387;48.112;8.616;2023-03-01T05:09:37;30.63;;;15.67;;
27744;SDS011;61387;48.112;8.616;2023-03-01T05:12:03;28.33;;;15.23;;
27744;SDS011;61387;48.112;8.616;2023-03-01T05:14:29;28.20;;;16.03;;
27744;SDS011;61387;48.112;8.616;2023-03-01T05:16:55;28.15;;;15.43;;
27744;SDS011;61387;48.112;8.616;2023-03-01T05:19:28;27.73;;;15.40;;
27744;SDS011;61387;48.112;8.616;2023-03-01T05:21:55;27.43;;;15.20;;
27744;SDS011;61387;48.112;8.616;2023-03-01T05:24:29;27.77;;;14.73;;
27744;SDS011;61387;48.112;8.616;2023-03-01T05:26:56;26.50;;;14.90;;
27744;SDS011;61387;48.112;8.616;2023-03-01T05:29:22;27.60;;;15.47;;
27744;SDS011;61387;48.112;8.616;2023-03-01T05:31:55;27.57;;;15.47;;
27744;SDS011;61387;48.112;8.616;2023-03-01T05:34:23;27.80;;;14.90;;
27744;SDS011;61387;48.112;8.616;2023-03-01T05:36:50;29.93;;;16.07;;
27744;SDS011;61387;48.112;8.616;2023-03-01T05:39:18;29.50;;;15.23;;
27744;SDS011;61387;48.112;8.616;2023-03-01T05:41:43;31.13;;;16.20;;
27744;SDS011;61387;48.112;8.616;2023-03-01T05:44:09;31.42;;;16.12;;
27744;SDS011;61387;48.112;8.616;2023-03-01T05:46:37;29.93;;;16.43;;
27744;SDS011;61387;48.112;8.616;2023-03-01T05:49:03;30.20;;;15.30;;
27744;SDS011;61387;48.112;8.616;2023-03-01T05:51:29;28.63;;;14.43;;
27744;SDS011;61387;48.112;8.616;2023-03-01T05:53:55;27.93;;;15.00;;
27744;SDS011;61387;48.112;8.616;2023-03-01T05:56:21;31.77;;;16.43;;
27744;SDS011;61387;48.112;8.616;2023-03-01T05:58:47;32.30;;;15.77;;
27744;SDS011;61387;48.112;8.616;2023-03-01T06:01:14;26.40;;;15.03;;
27744;SDS011;61387;48.112;8.616;2023-03-01T06:03:40;30.83;;;16.77;;
27744;SDS011;61387;48.112;8.616;2023-03-01T06:06:06;33.57;;;16.37;;
27744;SDS011;61387;48.112;8.616;2023-03-01T06:08:31;30.02;;;16.37;;
27744;SDS011;61387;48.112;8.616;2023-03-01T06:10:57;26.97;;;15.20;;
27744;SDS011;61387;48.112;8.616;2023-03-01T06:13:23;29.27;;;15.53;;
27744;SDS011;61387;48.112;8.616;2023-03-01T06:15:49;30.00;;;15.90;;
27744;SDS011;61387;48.112;8.616;2023-03-01T06:18:14;29.77;;;15.90;;
27744;SDS011;61387;48.112;8.616;2023-03-01T06:20:40;28.47;;;16.20;;
27744;SDS011;61387;48.112;8.616;2023-03-01T06:23:06;33.47;;;17.20;;
27744;SDS011;61387;48.112;8.616;2023-03-01T06:25:32;30.43;;;17.03;;
27744;SDS011;61387;48.112;8.616;2023-03-01T06:27:57;30.27;;;16.47;;
27744;SDS011;61387;48.112;8.616;2023-03-01T06:30:24;32.33;;;17.87;;
27744;SDS011;61387;48.112;8.616;2023-03-01T06:32:51;32.87;;;17.40;;
27744;SDS011;61387;48.112;8.616;2023-03-01T06:35:17;32.50;;;16.53;;
27744;SDS011;61387;48.112;8.616;2023-03-01T06:37:44;32.27;;;17.30;;
27744;SDS011;61387;48.112;8.616;2023-03-01T06:40:11;30.80;;;16.53;;
27744;SDS011;61387;48.112;8.616;2023-03-01T06:42:39;31.27;;;17.70;;
27744;SDS011;61387;48.112;8.616;2023-03-01T06:45:06;29.80;;;15.93;;
27744;SDS011;61387;48.112;8.616;2023-03-01T06:47:33;33.33;;;16.87;;
27744;SDS011;61387;48.112;8.616;2023-03-01T06:49:59;32.80;;;18.37;;
27744;SDS011;61387;48.112;8.616;2023-03-01T06:52:25;36.83;;;17.90;;
27744;SDS011;61387;48.112;8.616;2023-03-01T06:54:51;34.23;;;17.13;;
27744;SDS011;61387;48.112;8.616;2023-03-01T06:57:17;32.23;;;16.73;;
27744;SDS011;61387;48.112;8.616;2023-03-01T06:59:43;33.03;;;16.80;;
27744;SDS011;61387;48.112;8.616;2023-03-01T07:02:12;30.70;;;16.83;;
27744;SDS011;61387;48.112;8.616;2023-03-01T07:04:38;32.93;;;17.40;;
27744;SDS011;61387;48.112;8.616;2023-03-01T07:07:04;30.30;;;17.30;;
27744;SDS011;61387;48.112;8.616;2023-03-01T07:09:30;33.37;;;16.17;;
27744;SDS011;61387;48.112;8.616;2023-03-01T07:11:56;32.97;;;16.37;;
27744;SDS011;61387;48.112;8.616;2023-03-01T07:14:22;33.97;;;16.37;;
27744;SDS011;61387;48.112;8.616;2023-03-01T07:16:51;34.43;;;16.77;;
27744;SDS011;61387;48.112;8.616;2023-03-01T07:19:17;32.47;;;17.50;;
27744;SDS011;61387;48.112;8.616;2023-03-01T07:21:43;33.27;;;17.67;;
27744;SDS011;61387;48.112;8.616;2023-03-01T07:24:10;30.65;;;16.10;;
27744;SDS011;61387;48.112;8.616;2023-03-01T07:26:36;34.50;;;17.97;;
27744;SDS011;61387;48.112;8.616;2023-03-01T07:29:02;33.22;;;17.30;;
27744;SDS011;61387;48.112;8.616;2023-03-01T07:31:29;34.53;;;17.83;;
27744;SDS011;61387;48.112;8.616;2023-03-01T07:33:54;31.85;;;16.70;;
27744;SDS011;61387;48.112;8.616;2023-03-01T07:36:20;34.83;;;17.93;;
27744;SDS011;61387;48.112;8.616;2023-03-01T07:38:46;37.10;;;17.10;;
27744;SDS011;61387;48.112;8.616;2023-03-01T07:41:12;31.93;;;18.03;;
27744;SDS011;61387;48.112;8.616;2023-03-01T07:43:38;35.35;;;18.73;;
27744;SDS011;61387;48.112;8.616;2023-03-01T07:46:03;29.93;;;17.10;;
27744;SDS011;61387;48.112;8.616;2023-03-01T07:48:30;35.10;;;18.20;;
27744;SDS011;61387;48.112;8.616;2023-03-01T07:51:00;36.47;;;17.87;;
27744;SDS011;61387;48.112;8.616;2023-03-01T07:53:26;33.60;;;18.43;;
27744;SDS011;61387;48.112;8.616;2023-03-01T07:56:05;31.37;;;17.13;;
27744;SDS011;61387;48.112;8.616;2023-03-01T07:58:37;37.33;;;18.40;;
27744;SDS011;61387;48.112;8.616;2023-03-01T08:01:04;43.67;;;17.83;;
27744;SDS011;61387;48.112;8.616;2023-03-01T08:03:31;36.03;;;18.07;;
27744;SDS011;61387;48.112;8.616;2023-03-01T08:05:58;34.03;;;17.23;;
27744;SDS011;61387;48.112;8.616;2023-03-01T08:08:24;34.17;;;17.77;;
27744;SDS011;61387;48.112;8.616;2023-03-01T08:10:50;33.70;;;18.80;;
27744;SDS011;61387;48.112;8.616;2023-03-01T08:13:16;34.97;;;17.87;;
27744;SDS011;61387;48.112;8.616;2023-03-01T08:15:47;33.60;;;17.47;;
27744;SDS011;61387;48.112;8.616;2023-03-01T08:18:13;30.93;;;17.47;;
27744;SDS011;61387;48.112;8.616;2023-03-01T08:20:38;33.03;;;17.30;;
27744;SDS011;61387;48.112;8.616;2023-03-01T08:23:04;33.70;;;17.10;;
27744;SDS011;61387;48.112;8.616;2023-03-01T08:25:29;31.27;;;17.67;;
27744;SDS011;61387;48.112;8.616;2023-03-01T08:27:55;34.43;;;17.47;;
27744;SDS011;61387;48.112;8.616;2023-03-01T08:30:21;32.73;;;17.13;;
27744;SDS011;61387;48.112;8.616;2023-03-01T08:32:48;31.80;;;16.87;;
27744;SDS011;61387;48.112;8.616;2023-03-01T08:35:14;34.43;;;18.97;;
27744;SDS011;61387;48.112;8.616;2023-03-01T08:37:40;29.13;;;16.17;;
27744;SDS011;61387;48.112;8.616;2023-03-01T08:40:06;33.57;;;16.97;;
27744;SDS011;61387;48.112;8.616;2023-03-01T08:42:34;33.27;;;17.53;;
27744;SDS011;61387;48.112;8.616;2023-03-01T08:45:00;31.63;;;17.60;;
27744;SDS011;61387;48.112;8.616;2023-03-01T08:47:26;30.53;;;16.73;;
27744;SDS011;61387;48.112;8.616;2023-03-01T08:49:52;34.33;;;17.13;;
27744;SDS011;61387;48.112;8.616;2023-03-01T08:52:19;33.17;;;17.05;;
27744;SDS011;61387;48.112;8.616;2023-03-01T08:54:46;34.30;;;17.43;;
27744;SDS011;61387;48.112;8.616;2023-03-01T08:57:12;30.77;;;16.47;;
27744;SDS011;61387;48.112;8.616;2023-03-01T08:59:38;36.28;;;18.27;;
27744;SDS011;61387;48.112;8.616;2023-03-01T09:02:05;37.57;;;17.23;;
27744;SDS011;61387;48.112;8.616;2023-03-01T09:04:35;37.13;;;17.37;;
27744;SDS011;61387;48.112;8.616;2023-03-01T09:07:00;31.00;;;16.80;;
27744;SDS011;61387;48.112;8.616;2023-03-01T09:09:26;34.07;;;18.47;;
27744;SDS011;61387;48.112;8.616;2023-03-01T09:11:51;28.30;;;15.67;;
27744;SDS011;61387;48.112;8.616;2023-03-01T09:14:17;29.93;;;16.77;;
27744;SDS011;61387;48.112;8.616;2023-03-01T09:16:42;31.50;;;16.30;;
27744;SDS011;61387;48.112;8.616;2023-03-01T09:19:08;32.23;;;17.00;;
27744;SDS011;61387;48.112;8.616;2023-03-01T09:21:33;35.07;;;17.17;;
27744;SDS011;61387;48.112;8.616;2023-03-01T09:23:59;35.17;;;17.47;;
27744;SDS011;61387;48.112;8.616;2023-03-01T09:26:25;28.47;;;16.40;;
27744;SDS011;61387;48.112;8.616;2023-03-01T09:28:52;31.20;;;16.42;;
27744;SDS011;61387;48.112;8.616;2023-03-01T09:31:19;29.57;;;16.20;;
27744;SDS011;61387;48.112;8.616;2023-03-01T09:33:50;29.63;;;16.43;;
27744;SDS011;61387;48.112;8.616;2023-03-01T09:36:18;33.73;;;17.13;;
27744;SDS011;61387;48.112;8.616;2023-03-01T09:38:46;30.47;;;17.03;;
27744;SDS011;61387;48.112;8.616;2023-03-01T09:43:57;32.57;;;16.43;;
27744;SDS011;61387;48.112;8.616;2023-03-01T09:46:37;35.60;;;17.00;;
27744;SDS011;61387;48.112;8.616;2023-03-01T09:49:10;29.77;;;16.47;;
27744;SDS011;61387;48.112;8.616;2023-03-01T09:51:42;34.93;;;17.47;;
27744;SDS011;61387;48.112;8.616;2023-03-01T09:54:13;30.17;;;15.87;;
27744;SDS011;61387;48.112;8.616;2023-03-01T10:02:21;28.77;;;17.03;;
27744;SDS011;61387;48.112;8.616;2023-03-01T10:08:18;28.57;;;16.07;;
27744;SDS011;61387;48.112;8.616;2023-03-01T10:10:51;30.37;;;17.00;;
27744;SDS011;61387;48.112;8.616;2023-03-01T10:13:26;27.77;;;16.40;;
27744;SDS011;61387;48.112;8.616;2023-03-01T10:16:01;30.33;;;16.47;;
27744;SDS011;61387;48.112;8.616;2023-03-01T10:18:48;33.57;;;17.00;;
27744;SDS011;61387;48.112;8.616;2023-03-01T10:21:19;30.17;;;17.07;;
27744;SDS011;61387;48.112;8.616;2023-03-01T10:23:45;29.67;;;15.97;;
27744;SDS011;61387;48.112;8.616;2023-03-01T10:31:18;26.57;;;14.73;;
27744;SDS011;61387;48.112;8.616;2023-03-01T10:33:52;29.73;;;15.40;;
27744;SDS011;61387;48.112;8.616;2023-03-01T10:36:20;30.27;;;15.70;;
27744;SDS011;61387;48.112;8.616;2023-03-01T10:38:53;28.83;;;15.37;;
27744;SDS011;61387;48.112;8.616;2023-03-01T10:41:23;28.43;;;15.60;;
27744;SDS011;61387;48.112;8.616;2023-03-01T10:43:51;27.67;;;15.37;;
27744;SDS011;61387;48.112;8.616;2023-03-01T10:46:28;27.80;;;15.73;;
27744;SDS011;61387;48.112;8.616;2023-03-01T10:51:48;31.97;;;17.30;;
27744;SDS011;61387;48.112;8.616;2023-03-01T10:54:16;30.50;;;16.77;;
27744;SDS011;61387;48.112;8.616;2023-03-01T10:56:47;30.03;;;16.17;;
27744;SDS011;61387;48.112;8.616;2023-03-01T10:59:26;27.63;;;16.57;;
27744;SDS011;61387;48.112;8.616;2023-03-01T11:02:02;30.23;;;15.57;;
27744;SDS011;61387;48.112;8.616;2023-03-01T11:04:37;27.87;;;15.87;;
27744;SDS011;61387;48.112;8.616;2023-03-01T11:07:03;27.57;;;15.67;;
27744;SDS011;61387;48.112;8.616;2023-03-01T11:09:33;24.20;;;15.37;;
27744;SDS011;61387;48.112;8.616;2023-03-01T11:12:05;53.67;;;16.33;;
27744;SDS011;61387;48.112;8.616;2023-03-01T11:14:48;25.63;;;14.77;;
27744;SDS011;61387;48.112;8.616;2023-03-01T11:17:29;28.20;;;14.20;;
27744;SDS011;61387;48.112;8.616;2023-03-01T11:20:14;28.37;;;15.10;;
27744;SDS011;61387;48.112;8.616;2023-03-01T11:22:54;26.20;;;14.90;;
27744;SDS011;61387;48.112;8.616;2023-03-01T11:25:27;27.20;;;14.80;;
27744;SDS011;61387;48.112;8.616;2023-03-01T11:27:56;25.57;;;15.53;;
27744;SDS011;61387;48.112;8.616;2023-03-01T11:30:31;29.87;;;15.77;;
27744;SDS011;61387;48.112;8.616;2023-03-01T11:35:46;26.73;;;14.93;;
27744;SDS011;61387;48.112;8.616;2023-03-01T11:38:23;26.90;;;15.20;;
27744;SDS011;61387;48.112;8.616;2023-03-01T11:52:07;25.50;;;15.67;;
27744;SDS011;61387;48.112;8.616;2023-03-01T11:55:12;27.33;;;15.83;;
27744;SDS011;61387;48.112;8.616;2023-03-01T11:58:08;27.23;;;15.13;;
27744;SDS011;61387;48.112;8.616;2023-03-01T12:03:26;24.33;;;14.37;;
27744;SDS011;61387;48.112;8.616;2023-03-01T12:11:03;29.07;;;15.30;;
27744;SDS011;61387;48.112;8.616;2023-03-01T12:19:39;22.50;;;13.40;;
27744;SDS011;61387;48.112;8.616;2023-03-01T12:27:30;21.37;;;12.20;;
27744;SDS011;61387;48.112;8.616;2023-03-01T12:35:11;27.63;;;15.00;;
27744;SDS011;61387;48.112;8.616;2023-03-01T12:43:33;23.63;;;13.67;;
27744;SDS011;61387;48.112;8.616;2023-03-01T12:46:25;24.13;;;12.57;;
27744;SDS011;61387;48.112;8.616;2023-03-01T12:49:19;21.13;;;11.60;;
27744;SDS011;61387;48.112;8.616;2023-03-01T12:51:51;23.73;;;11.57;;
27744;SDS011;61387;48.112;8.616;2023-03-01T12:54:26;22.17;;;12.50;;
27744;SDS011;61387;48.112;8.616;2023-03-01T13:02:48;20.77;;;12.90;;
27744;SDS011;61387;48.112;8.616;2023-03-01T13:05:29;19.20;;;12.27;;
27744;SDS011;61387;48.112;8.616;2023-03-01T13:11:18;19.30;;;10.87;;
27744;SDS011;61387;48.112;8.616;2023-03-01T13:13:46;20.67;;;10.90;;
27744;SDS011;61387;48.112;8.616;2023-03-01T13:19:13;19.70;;;11.87;;
27744;SDS011;61387;48.112;8.616;2023-03-01T13:21:51;23.13;;;12.77;;
27744;SDS011;61387;48.112;8.616;2023-03-01T13:32:38;18.03;;;11.93;;
27744;SDS011;61387;48.112;8.616;2023-03-01T13:37:40;24.80;;;13.20;;
27744;SDS011;61387;48.112;8.616;2023-03-01T13:42:42;21.83;;;13.07;;
27744;SDS011;61387;48.112;8.616;2023-03-01T13:45:36;21.47;;;12.83;;
27744;SDS011;61387;48.112;8.616;2023-03-01T13:48:03;23.77;;;13.33;;
27744;SDS011;61387;48.112;8.616;2023-03-01T13:50:43;21.43;;;12.90;;
27744;SDS011;61387;48.112;8.616;2023-03-01T13:53:14;21.63;;;12.37;;
27744;SDS011;61387;48.112;8.616;2023-03-01T13:55:44;22.00;;;11.67;;
27744;SDS011;61387;48.112;8.616;2023-03-01T13:58:14;21.83;;;12.43;;
27744;SDS011;61387;48.112;8.616;2023-03-01T14:00:58;21.13;;;12.23;;
27744;SDS011;61387;48.112;8.616;2023-03-01T14:03:26;20.90;;;11.33;;
27744;SDS011;61387;48.112;8.616;2023-03-01T14:08:27;23.43;;;12.70;;
27744;SDS011;61387;48.112;8.616;2023-03-01T14:11:05;22.57;;;12.80;;
27744;SDS011;61387;48.112;8.616;2023-03-01T14:19:07;20.50;;;12.77;;
27744;SDS011;61387;48.112;8.616;2023-03-01T14:21:36;21.60;;;12.63;;
27744;SDS011;61387;48.112;8.616;2023-03-01T14:24:01;27.57;;;13.07;;
27744;SDS011;61387;48.112;8.616;2023-03-01T14:26:27;21.40;;;12.47;;
27744;SDS011;61387;48.112;8.616;2023-03-01T14:28:55;20.47;;;12.50;;
27744;SDS011;61387;48.112;8.616;2023-03-01T14:31:38;18.80;;;12.07;;
27744;SDS011;61387;48.112;8.616;2023-03-01T14:34:04;23.90;;;12.40;;
27744;SDS011;61387;48.112;8.616;2023-03-01T14:36:31;20.57;;;12.20;;
27744;SDS011;61387;48.112;8.616;2023-03-01T14:38:58;20.33;;;12.57;;
27744;SDS011;61387;48.112;8.616;2023-03-01T14:41:29;29.87;;;12.90;;
27744;SDS011;61387;48.112;8.616;2023-03-01T14:44:00;25.53;;;12.63;;
27744;SDS011;61387;48.112;8.616;2023-03-01T14:46:29;18.00;;;11.17;;
27744;SDS011;61387;48.112;8.616;2023-03-01T14:49:04;21.33;;;12.63;;
27744;SDS011;61387;48.112;8.616;2023-03-01T14:51:59;20.83;;;11.90;;
27744;SDS011;61387;48.112;8.616;2023-03-01T14:54:37;22.43;;;12.50;;
27744;SDS011;61387;48.112;8.616;2023-03-01T14:57:19;24.37;;;12.60;;
27744;SDS011;61387;48.112;8.616;2023-03-01T14:59:53;18.47;;;12.30;;
27744;SDS011;61387;48.112;8.616;2023-03-01T15:02:26;20.27;;;12.83;;
27744;SDS011;61387;48.112;8.616;2023-03-01T15:04:55;21.87;;;12.37;;
27744;SDS011;61387;48.112;8.616;2023-03-01T15:07:25;20.47;;;12.63;;
27744;SDS011;61387;48.112;8.616;2023-03-01T15:09:54;22.10;;;12.60;;
27744;SDS011;61387;48.112;8.616;2023-03-01T15:12:41;20.83;;;13.40;;
27744;SDS011;61387;48.112;8.616;2023-03-01T15:15:52;22.17;;;12.87;;
27744;SDS011;61387;48.112;8.616;2023-03-01T15:17:55;21.07;;;12.77;;
27744;SDS011;61387;48.112;8.616;2023-03-01T15:20:24;24.33;;;13.83;;
27744;SDS011;61387;48.112;8.616;2023-03-01T15:22:52;23.10;;;13.03;;
27744;SDS011;61387;48.112;8.616;2023-03-01T15:25:21;30.37;;;14.47;;
27744;SDS011;61387;48.112;8.616;2023-03-01T15:27:49;20.83;;;13.10;;
27744;SDS011;61387;48.112;8.616;2023-03-01T15:30:17;20.03;;;12.47;;
27744;SDS011;61387;48.112;8.616;2023-03-01T15:32:46;23.17;;;13.83;;
27744;SDS011;61387;48.112;8.616;2023-03-01T15:38:04;23.60;;;13.37;;
27744;SDS011;61387;48.112;8.616;2023-03-01T15:40:51;19.60;;;12.77;;
27744;SDS011;61387;48.112;8.616;2023-03-01T15:46:03;24.00;;;12.83;;
27744;SDS011;61387;48.112;8.616;2023-03-01T15:48:29;20.00;;;12.23;;
27744;SDS011;61387;48.112;8.616;2023-03-01T15:50:56;20.23;;;12.33;;
27744;SDS011;61387;48.112;8.616;2023-03-01T15:53:23;19.53;;;12.90;;
27744;SDS011;61387;48.112;8.616;2023-03-01T15:55:49;20.33;;;12.67;;
27744;SDS011;61387;48.112;8.616;2023-03-01T15:58:19;21.40;;;12.37;;
27744;SDS011;61387;48.112;8.616;2023-03-01T16:00:47;23.70;;;13.37;;
27744;SDS011;61387;48.112;8.616;2023-03-01T16:03:16;21.97;;;12.90;;
27744;SDS011;61387;48.112;8.616;2023-03-01T16:05:46;22.13;;;12.87;;
27744;SDS011;61387;48.112;8.616;2023-03-01T16:08:13;22.00;;;13.67;;
27744;SDS011;61387;48.112;8.616;2023-03-01T16:10:39;21.07;;;12.90;;
27744;SDS011;61387;48.112;8.616;2023-03-01T16:13:05;22.20;;;12.87;;
27744;SDS011;61387;48.112;8.616;2023-03-01T16:15:32;22.40;;;12.87;;
27744;SDS011;61387;48.112;8.616;2023-03-01T16:17:59;25.30;;;12.80;;
27744;SDS011;61387;48.112;8.616;2023-03-01T16:20:25;20.07;;;12.33;;
27744;SDS011;61387;48.112;8.616;2023-03-01T16:22:52;22.67;;;13.17;;